Time;durP1;ratioP1;P1;durP2;ratioP2;P2;SDS_P1;SDS_P2;PMS_P1;PMS_P2;Temp;Humidity;BMP_temperature;BMP_pressure;BME280_temperature;BME280_humidity;BME280_pressure;Samples;Min_cycle;Max_cycle;Signal;HPM_P1;HPM_P2
2022/06/11 00:00:57;;;;;;;8.27;5.93;;;16.10;74.10;;;15.11;76.42;96656.41;4988855;28;20563;-64
2022/06/11 00:03:22;;;;;;;6.43;5.68;;;16.10;74.30;;;15.09;77.58;96652.31;4998706;28;20040;-65
2022/06/11 00:05:49;;;;;;;6.13;5.53;;;16.00;74.40;;;15.02;77.73;96647.03;5010481;28;20034;-64
2022/06/11 00:08:16;;;;;;;6.95;5.57;;;16.00;74.70;;;15.00;77.08;96655.19;5006957;28;20122;-64
2022/06/11 00:10:41;;;;;;;8.55;5.80;;;16.00;74.90;;;14.98;77.99;96656.41;5021335;28;20116;-64
2022/06/11 00:13:07;;;;;;;8.60;5.63;;;15.90;75.00;;;14.94;78.77;96655.19;4987609;28;20038;-65
2022/06/11 00:15:33;;;;;;;7.93;6.22;;;15.90;75.10;;;14.88;78.23;96645.38;5039370;28;20543;-65
2022/06/11 00:17:59;;;;;;;7.88;5.50;;;15.90;75.20;;;14.86;77.77;96648.22;5001531;28;20072;-64
2022/06/11 00:20:26;;;;;;;7.97;5.55;;;15.80;75.00;;;14.84;77.89;96655.56;5024358;28;20049;-64
2022/06/11 00:22:52;;;;;;;11.35;7.20;;;15.70;75.10;;;14.82;78.98;96662.91;4993636;28;20178;-64
2022/06/11 00:25:18;;;;;;;7.35;5.18;;;15.80;75.20;;;14.79;77.78;96659.84;5022962;28;20473;-65
2022/06/11 00:27:44;;;;;;;8.43;5.28;;;15.70;75.20;;;14.73;79.78;96658.81;5000696;28;20485;-64
2022/06/11 00:30:11;;;;;;;6.95;5.20;;;15.60;75.20;;;14.70;79.01;96648.59;5009107;28;20034;-64
2022/06/11 00:32:38;;;;;;;6.30;5.15;;;15.60;75.40;;;14.67;78.74;96649.81;5021074;28;20032;-64
2022/06/11 00:35:05;;;;;;;11.88;5.20;;;15.60;75.50;;;14.63;78.99;96643.31;5001390;28;20091;-64
2022/06/11 00:37:31;;;;;;;6.13;5.18;;;15.60;75.60;;;14.60;79.05;96638.41;5001618;28;20023;-66
2022/06/11 00:39:57;;;;;;;8.25;6.15;;;15.60;75.60;;;14.58;79.71;96640.44;5024303;28;20036;-65
2022/06/11 00:42:27;;;;;;;7.25;5.68;;;15.50;76.00;;;14.56;79.98;96636.38;5006758;28;20404;-63
2022/06/11 00:45:22;;;;;;;6.63;5.78;;;15.50;75.90;;;14.55;81.61;96632.91;4993359;28;20033;-63
2022/06/11 00:48:05;;;;;;;8.23;6.00;;;15.60;76.10;;;14.47;79.90;96626.97;5034322;28;20096;-64
2022/06/11 00:50:40;;;;;;;7.82;5.90;;;15.60;76.20;;;14.47;80.56;96633.06;5015091;28;20030;-63
2022/06/11 00:53:19;;;;;;;8.77;6.00;;;15.50;76.20;;;14.46;81.87;96628.78;5012517;28;20055;-65
2022/06/11 00:55:45;;;;;;;7.63;5.80;;;15.50;76.40;;;14.43;80.28;96631.00;4997300;28;20426;-65
2022/06/11 00:58:24;;;;;;;8.65;6.55;;;15.40;76.40;;;14.41;81.24;96639.16;5004692;28;20051;-64
2022/06/11 01:00:57;;;;;;;7.20;5.85;;;15.40;76.40;;;14.41;80.57;96628.56;5015219;28;20037;-65
2022/06/11 01:03:36;;;;;;;7.80;6.55;;;15.30;76.60;;;14.38;82.46;96618.38;5010306;28;20088;-64
2022/06/11 01:06:37;;;;;;;8.32;6.28;;;15.40;76.50;;;14.35;82.64;96624.06;5000027;28;20322;-65
2022/06/11 01:09:29;;;;;;;6.97;6.28;;;15.40;76.50;;;14.32;82.23;96614.69;4993236;28;20042;-64
2022/06/11 01:12:29;;;;;;;8.60;6.20;;;15.30;76.50;;;14.30;82.00;96621.22;4993490;28;20065;-65
2022/06/11 01:15:15;;;;;;;9.15;6.38;;;15.40;76.40;;;14.29;81.54;96619.59;5014006;28;20072;-65
2022/06/11 01:18:12;;;;;;;8.05;6.68;;;15.30;76.30;;;14.26;80.77;96619.97;4998716;28;20041;-65
2022/06/11 01:20:57;;;;;;;9.45;6.50;;;15.20;76.60;;;14.23;81.79;96615.88;5020994;28;20113;-64
2022/06/11 01:23:41;;;;;;;7.82;6.85;;;15.20;76.80;;;14.20;83.18;96618.94;4999191;28;20033;-64
2022/06/11 01:26:53;;;;;;;8.23;6.10;;;15.20;76.90;;;14.17;82.35;96621.16;4994977;28;20037;-63
2022/06/11 01:29:53;;;;;;;10.02;6.65;;;15.10;77.00;;;14.13;82.37;96625.22;5017556;28;20026;-65
2022/06/11 01:32:50;;;;;;;8.68;6.30;;;15.10;77.00;;;14.08;83.11;96617.88;4997120;28;20100;-64
2022/06/11 01:35:51;;;;;;;7.82;6.38;;;15.00;76.90;;;14.04;82.46;96616.66;5002894;28;20499;-64
2022/06/11 01:38:33;;;;;;;8.38;6.13;;;15.00;77.00;;;13.99;82.25;96614.56;4930580;29;20051;-63
2022/06/11 01:41:10;;;;;;;8.27;6.03;;;15.00;77.00;;;13.95;81.38;96616.00;5010749;28;20101;-64
2022/06/11 01:43:39;;;;;;;6.28;5.50;;;15.00;77.20;;;13.94;81.28;96619.66;5012984;28;20038;-64
2022/06/11 01:46:20;;;;;;;8.65;5.82;;;14.90;77.20;;;13.92;83.58;96612.94;5019668;28;20050;-63
2022/06/11 01:49:03;;;;;;;7.47;5.65;;;14.90;77.30;;;13.87;83.11;96610.88;5009775;28;20033;-65
2022/06/11 01:51:55;;;;;;;6.65;5.53;;;14.90;77.30;;;13.85;83.65;96614.72;4981030;28;20603;-64
2022/06/11 01:54:37;;;;;;;6.78;5.43;;;14.80;77.50;;;13.79;83.19;96613.66;5008588;28;20091;-64
2022/06/11 01:57:38;;;;;;;8.70;5.68;;;14.80;77.50;;;13.78;83.13;96607.56;5020958;28;20033;-63
2022/06/11 02:00:24;;;;;;;7.18;5.43;;;14.70;77.50;;;13.74;83.93;96616.09;4998203;28;20096;-65
2022/06/11 02:03:21;;;;;;;8.32;5.70;;;14.70;77.50;;;13.71;83.09;96608.56;4992247;28;20037;-64
2022/06/11 02:06:18;;;;;;;5.93;5.32;;;14.70;77.50;;;13.65;83.68;96607.53;5011365;28;20080;-64
2022/06/11 02:09:17;;;;;;;7.22;5.70;;;14.60;77.70;;;13.62;84.32;96617.66;5018271;28;20060;-64
2022/06/11 02:11:46;;;;;;;8.13;6.03;;;14.60;77.90;;;13.58;83.18;96605.81;5003671;28;20047;-65
2022/06/11 02:14:20;;;;;;;6.78;6.00;;;14.60;77.90;;;13.59;83.67;96612.78;5011027;28;20030;-64
2022/06/11 02:17:12;;;;;;;9.48;6.10;;;14.60;78.00;;;13.56;84.76;96610.50;5011902;28;20532;-65
2022/06/11 02:19:43;;;;;;;8.05;6.15;;;14.60;78.10;;;13.53;84.75;96624.09;5015520;28;20093;-64
2022/06/11 02:22:17;;;;;;;6.22;5.63;;;14.60;78.20;;;13.51;84.62;96623.50;5010607;28;20045;-64
2022/06/11 02:25:02;;;;;;;6.88;5.65;;;14.60;78.30;;;13.49;85.15;96621.84;5011761;28;20043;-65
2022/06/11 02:27:29;;;;;;;8.20;6.25;;;14.60;78.10;;;13.47;84.68;96621.25;4996209;28;20029;-65
2022/06/11 02:29:55;;;;;;;8.18;6.13;;;14.60;78.00;;;13.44;84.34;96621.63;4997471;28;20112;-64
2022/06/11 02:32:22;;;;;;;6.72;6.03;;;14.50;78.10;;;13.42;83.42;96639.50;4989811;28;20390;-64
2022/06/11 02:34:58;;;;;;;9.23;5.80;;;14.40;78.20;;;13.40;85.03;96638.06;4979668;28;20579;-65
2022/06/11 02:37:33;;;;;;;6.95;5.60;;;14.50;78.20;;;13.38;84.27;96643.53;4995445;28;20030;-63
2022/06/11 02:40:06;;;;;;;7.25;5.50;;;14.40;78.10;;;13.35;84.15;96638.66;5003121;28;20110;-64
2022/06/11 02:42:32;;;;;;;6.47;5.40;;;14.40;78.20;;;13.31;84.57;96636.56;4998261;28;20073;-64
2022/06/11 02:44:58;;;;;;;6.75;5.75;;;14.40;78.30;;;13.29;83.85;96644.69;5015780;28;20500;-64
2022/06/11 02:47:23;;;;;;;8.10;6.38;;;14.30;78.40;;;13.27;84.86;96645.88;5010456;28;20033;-64
2022/06/11 02:49:49;;;;;;;6.53;5.93;;;14.30;78.50;;;13.26;84.71;96645.06;5002518;28;20041;-65
2022/06/11 02:52:19;;;;;;;5.93;5.00;;;14.30;78.30;;;13.23;84.08;96650.75;5039959;28;20405;-63
2022/06/11 02:54:45;;;;;;;7.38;5.55;;;14.30;78.40;;;13.20;83.97;96651.13;5042684;28;20045;-64
2022/06/11 02:57:14;;;;;;;9.20;6.35;;;14.20;78.40;;;13.17;84.37;96649.69;4988854;28;20034;-63
2022/06/11 02:59:42;;;;;;;7.97;6.30;;;14.20;78.60;;;13.14;84.37;96642.13;5020853;28;20518;-65
2022/06/11 03:02:07;;;;;;;8.75;5.95;;;14.20;78.60;;;13.15;85.35;96656.97;5012864;28;20026;-64
2022/06/11 03:04:33;;;;;;;8.05;5.75;;;14.20;78.50;;;13.13;85.45;96661.63;5028557;28;20129;-64
2022/06/11 03:07:00;;;;;;;8.05;5.75;;;14.20;78.60;;;13.12;85.09;96653.88;4996055;28;20079;-64
2022/06/11 03:09:28;;;;;;;8.30;5.70;;;14.20;78.70;;;13.11;84.85;96657.50;5038173;28;20455;-64
2022/06/11 03:11:54;;;;;;;12.50;6.07;;;14.20;78.60;;;13.09;84.83;96670.09;5022813;28;20116;-63
2022/06/11 03:14:20;;;;;;;7.63;6.10;;;14.20;78.80;;;13.09;85.84;96664.81;5011906;28;20129;-64
2022/06/11 03:16:46;;;;;;;7.40;5.13;;;14.20;78.80;;;13.07;85.28;96667.66;5028326;28;20065;-64
2022/06/11 03:19:11;;;;;;;9.02;6.03;;;14.20;78.70;;;13.09;85.65;96670.09;5016472;28;20120;-64
2022/06/11 03:21:37;;;;;;;9.85;7.60;;;14.20;78.80;;;13.09;86.22;96675.38;5010274;28;20029;-63
2022/06/11 03:24:04;;;;;;;13.75;10.98;;;14.20;79.10;;;13.07;86.32;96672.94;5028994;28;20042;-65
2022/06/11 03:26:29;;;;;;;13.23;10.35;;;14.10;79.50;;;13.06;86.62;96660.72;5009283;28;20508;-64
2022/06/11 03:28:55;;;;;;;11.50;9.98;;;14.10;79.70;;;13.06;87.08;96667.84;5004953;28;20038;-65
2022/06/11 03:31:21;;;;;;;8.82;7.30;;;14.10;79.70;;;13.05;86.29;96669.66;5002605;28;20046;-66
2022/06/11 03:33:47;;;;;;;10.63;7.55;;;14.10;79.60;;;13.05;86.77;96674.94;4995531;28;20088;-63
2022/06/11 03:36:14;;;;;;;7.25;6.50;;;14.10;79.60;;;13.05;86.48;96676.78;5010383;28;20543;-64
2022/06/11 03:38:41;;;;;;;8.98;6.88;;;14.20;79.50;;;13.05;85.88;96674.13;4995039;28;20125;-62
2022/06/11 03:41:07;;;;;;;8.07;5.97;;;14.10;79.40;;;13.01;86.51;96672.88;5003413;28;20040;-70
2022/06/11 03:43:33;;;;;;;6.60;5.65;;;14.10;79.50;;;13.01;87.12;96673.69;5024628;28;20651;-65
2022/06/11 03:45:59;;;;;;;19.38;15.15;;;14.20;79.50;;;13.02;87.36;96679.78;5029336;28;20038;-72
2022/06/11 03:48:28;;;;;;;24.13;18.80;;;14.20;79.60;;;13.02;87.24;96685.91;5008681;28;20117;-70
2022/06/11 03:50:54;;;;;;;12.65;10.57;;;14.20;79.40;;;13.02;87.37;96682.44;4988645;28;20517;-65
2022/06/11 03:53:19;;;;;;;9.50;7.90;;;14.30;79.50;;;13.04;88.11;96689.16;5007167;28;20049;-64
2022/06/11 03:55:45;;;;;;;14.10;10.25;;;14.30;79.60;;;13.04;87.26;96690.97;5016311;28;22017;-64
2022/06/11 03:58:11;;;;;;;10.27;8.85;;;14.30;79.50;;;13.08;88.09;96698.34;4997710;28;20061;-65
2022/06/11 04:03:21;;;;;;;7.82;6.55;;;14.30;79.40;;;13.10;87.16;96698.13;4992855;28;20662;-65
2022/06/11 04:05:48;;;;;;;7.43;5.40;;;14.40;79.40;;;13.09;87.95;96696.50;5021022;28;20033;-66
2022/06/11 04:08:14;;;;;;;8.45;6.07;;;14.30;79.20;;;13.09;87.65;96693.88;5019246;28;20125;-64
2022/06/11 04:10:41;;;;;;;11.43;8.98;;;14.30;79.10;;;13.09;87.14;96699.16;4980294;28;20116;-65
2022/06/11 04:13:08;;;;;;;8.93;7.20;;;14.30;79.20;;;13.11;87.39;96697.94;4996671;28;20079;-65
2022/06/11 04:15:35;;;;;;;7.88;6.25;;;14.40;79.10;;;13.10;87.06;96703.44;4991528;28;20029;-65
2022/06/11 04:18:01;;;;;;;11.35;10.00;;;14.30;79.00;;;13.10;87.89;96698.97;5014468;28;20025;-64
2022/06/11 04:20:26;;;;;;;20.45;15.20;;;14.40;79.20;;;13.12;88.19;96704.06;5028446;28;20449;-65
2022/06/11 04:22:52;;;;;;;17.48;13.95;;;14.40;79.20;;;13.12;87.95;96706.69;5031413;28;20094;-65
2022/06/11 04:25:18;;;;;;;16.42;12.77;;;14.40;79.30;;;13.14;87.71;96705.53;5031105;28;20079;-64
2022/06/11 04:27:44;;;;;;;9.25;7.13;;;14.40;79.10;;;13.17;87.24;96715.72;4999949;28;20042;-64
2022/06/11 04:30:12;;;;;;;8.80;6.22;;;14.50;79.10;;;13.20;87.40;96711.88;4992155;28;20498;-65
2022/06/11 04:32:38;;;;;;;7.72;6.15;;;14.60;79.10;;;13.20;87.51;96703.97;4997629;28;20030;-66
2022/06/11 04:35:04;;;;;;;6.75;5.50;;;14.60;79.10;;;13.25;88.09;96711.31;5012268;28;20038;-66
2022/06/11 04:37:30;;;;;;;9.75;5.78;;;14.60;79.10;;;13.27;87.51;96710.13;4987039;28;20444;-63
2022/06/11 04:39:57;;;;;;;7.57;5.60;;;14.60;79.10;;;13.30;87.31;96703.63;5011106;28;20029;-64
2022/06/11 04:42:23;;;;;;;5.63;5.00;;;14.70;79.00;;;13.33;88.32;96709.34;5004457;28;20508;-65
2022/06/11 04:44:49;;;;;;;7.78;5.35;;;14.70;79.10;;;13.38;88.62;96706.16;5011154;28;20048;-65
2022/06/11 04:47:18;;;;;;;6.50;5.70;;;14.70;79.20;;;13.40;87.99;96710.22;5014622;28;20112;-64
2022/06/11 04:49:44;;;;;;;9.85;5.78;;;14.80;79.00;;;13.40;87.47;96707.59;5025313;28;20548;-64
2022/06/11 04:52:10;;;;;;;7.97;6.13;;;14.70;79.20;;;13.41;87.44;96706.59;5006368;28;20034;-65
2022/06/11 04:54:36;;;;;;;8.88;5.93;;;14.70;79.30;;;13.43;88.76;96715.13;5019798;28;20038;-65
2022/06/11 04:57:02;;;;;;;6.28;5.40;;;14.80;79.50;;;13.46;88.72;96720.03;5028090;28;20189;-65
2022/06/11 04:59:29;;;;;;;8.73;5.53;;;14.80;79.60;;;13.51;89.42;96710.72;5025938;28;20026;-65
2022/06/11 05:01:55;;;;;;;10.48;5.18;;;14.90;79.40;;;13.57;89.36;96709.94;5019872;28;20397;-65
2022/06/11 05:04:20;;;;;;;7.00;4.93;;;15.00;79.40;;;13.62;89.13;96715.47;4995131;28;20034;-64
2022/06/11 05:06:46;;;;;;;8.27;5.03;;;15.00;79.40;;;13.65;88.13;96713.25;5007286;28;20125;-66
2022/06/11 05:09:16;;;;;;;6.53;4.85;;;15.00;79.20;;;13.69;89.65;96713.69;4992953;28;20023;-64
2022/06/11 05:11:41;;;;;;;6.15;4.82;;;15.10;79.40;;;13.74;89.62;96719.22;4996966;28;20517;-65
2022/06/11 05:14:07;;;;;;;8.88;5.03;;;15.10;79.30;;;13.80;88.30;96726.34;5013382;28;20099;-65
2022/06/11 05:16:33;;;;;;;6.22;4.45;;;15.10;79.50;;;13.84;89.63;96713.59;5031632;28;20034;-64
2022/06/11 05:18:59;;;;;;;5.43;4.05;;;15.20;79.40;;;13.89;89.08;96725.22;4997909;28;20025;-65
2022/06/11 05:21:25;;;;;;;7.60;4.80;;;15.30;79.30;;;13.94;88.24;96725.44;5013256;28;20064;-65
2022/06/11 05:23:51;;;;;;;4.93;4.28;;;15.30;79.00;;;13.98;88.52;96724.03;5014564;28;20033;-64
2022/06/11 05:26:20;;;;;;;6.50;4.38;;;15.40;78.90;;;14.03;89.97;96721.66;5030274;28;20065;-64
2022/06/11 05:28:46;;;;;;;6.35;4.13;;;15.50;78.70;;;14.09;88.59;96731.44;4981673;28;20068;-65
2022/06/11 05:31:12;;;;;;;5.25;4.10;;;15.60;78.60;;;14.18;88.17;96725.97;4981679;28;20064;-64
2022/06/11 05:33:37;;;;;;;4.90;3.90;;;15.70;78.60;;;14.27;88.95;96728.28;5013504;28;20458;-64
2022/06/11 05:36:04;;;;;;;6.93;4.22;;;15.80;78.20;;;14.38;89.09;96729.53;5009211;28;20527;-63
2022/06/11 05:38:30;;;;;;;4.55;4.05;;;16.00;77.90;;;14.47;89.13;96723.06;5019736;28;20133;-64
2022/06/11 05:40:56;;;;;;;6.63;4.47;;;16.10;77.50;;;14.61;87.72;96729.25;5002988;28;20152;-65
2022/06/11 05:43:22;;;;;;;6.03;4.10;;;16.30;77.20;;;14.73;89.11;96727.66;5000076;28;20155;-66
2022/06/11 05:46:07;;;;;;;6.03;3.85;;;16.50;76.80;;;14.89;88.01;96724.63;4990915;28;20034;-65
2022/06/11 05:48:37;;;;;;;5.85;3.97;;;16.70;76.30;;;15.00;87.37;96724.06;5016782;28;20060;-64
2022/06/11 05:51:03;;;;;;;4.30;3.57;;;16.80;75.60;;;15.16;88.17;96728.16;4997625;28;20029;-65
2022/06/11 05:53:31;;;;;;;5.13;3.58;;;17.10;75.30;;;15.31;87.17;96726.13;4983150;28;20045;-65
2022/06/11 05:55:58;;;;;;;4.97;4.07;;;17.20;75.20;;;15.47;87.13;96729.41;5005544;28;20038;-65
2022/06/11 05:58:48;;;;;;;5.13;3.75;;;17.30;74.30;;;15.66;85.07;96733.91;4990482;28;20031;-65
2022/06/11 06:01:15;;;;;;;4.55;3.53;;;17.50;73.80;;;15.83;85.45;96727.16;5022054;28;20030;-65
2022/06/11 06:03:41;;;;;;;4.50;3.40;;;17.80;73.20;;;16.05;85.35;96726.91;5012139;28;20045;-65
2022/06/11 06:06:07;;;;;;;4.28;3.20;;;18.10;72.30;;;16.23;84.40;96729.72;5025876;28;20049;-65
2022/06/11 06:08:33;;;;;;;4.93;3.47;;;18.20;71.20;;;16.43;83.30;96724.34;5030715;28;20065;-65
2022/06/11 06:10:58;;;;;;;4.85;3.20;;;18.50;70.20;;;16.65;81.91;96728.34;4997338;28;20061;-65
2022/06/11 06:16:09;;;;;;;4.40;2.72;;;18.90;68.20;;;17.15;80.14;96725.84;5034530;28;20044;-64
2022/06/11 06:18:34;;;;;;;4.53;3.10;;;19.20;67.20;;;17.38;79.45;96722.59;5031311;28;20037;-64
2022/06/11 06:21:00;;;;;;;4.05;3.00;;;19.40;66.40;;;17.64;77.98;96727.72;5025665;28;20044;-64
2022/06/11 06:23:26;;;;;;;4.25;3.10;;;19.60;65.00;;;17.86;77.01;96735.31;5037929;28;20232;-64
2022/06/11 06:25:51;;;;;;;5.57;3.13;;;19.80;65.20;;;18.06;76.75;96726.13;5024353;28;20030;-64
2022/06/11 06:28:17;;;;;;;4.63;3.22;;;20.00;64.50;;;18.22;75.94;96735.38;5024069;28;20037;-64
2022/06/11 06:30:43;;;;;;;4.50;2.70;;;20.20;64.00;;;18.38;75.18;96734.00;5028223;28;20065;-68
2022/06/11 06:33:09;;;;;;;3.88;3.03;;;20.40;63.70;;;18.55;74.38;96728.84;5025103;28;20037;-68
2022/06/11 06:35:34;;;;;;;3.95;2.63;;;20.60;62.90;;;18.77;74.27;96732.69;5000157;28;20132;-69
2022/06/11 06:38:02;;;;;;;4.82;2.35;;;21.00;62.70;;;19.02;73.79;96731.78;5025302;28;20643;-69
2022/06/11 06:40:28;;;;;;;3.38;2.72;;;21.20;60.80;;;19.24;72.73;96740.91;4987982;28;20480;-69
2022/06/11 06:42:54;;;;;;;4.28;2.90;;;21.40;60.30;;;19.49;71.71;96738.88;5023129;28;20461;-73
2022/06/11 06:45:20;;;;;;;2.80;2.25;;;21.80;59.30;;;19.71;71.32;96738.34;5002666;28;20037;-73
2022/06/11 06:47:46;;;;;;;3.55;2.30;;;22.00;58.70;;;19.87;70.10;96732.31;4991860;28;20115;-70
2022/06/11 06:50:11;;;;;;;4.47;2.40;;;22.20;58.10;;;20.11;69.71;96739.25;5003832;28;20450;-68
2022/06/11 06:52:37;;;;;;;2.50;2.30;;;22.50;58.00;;;20.30;69.22;96736.47;4988038;28;20076;-67
2022/06/11 06:55:03;;;;;;;3.80;2.65;;;22.70;56.40;;;20.46;68.38;96738.44;5018670;28;20034;-66
2022/06/11 06:57:29;;;;;;;4.95;2.58;;;22.90;55.50;;;20.65;68.03;96744.44;4977377;28;20097;-68
2022/06/11 06:59:55;;;;;;;2.72;2.05;;;23.10;55.00;;;20.83;67.24;96730.91;5024845;28;20488;-66
2022/06/11 07:02:20;;;;;;;5.38;2.47;;;23.40;54.40;;;21.01;67.14;96725.34;5027449;28;20037;-66
2022/06/11 07:04:46;;;;;;;3.60;2.20;;;23.60;54.30;;;21.21;66.46;96730.25;5002205;28;20076;-66
2022/06/11 07:07:16;;;;;;;5.35;2.30;;;23.80;54.20;;;21.45;65.13;96732.84;5012762;28;20033;-66
2022/06/11 07:09:41;;;;;;;4.45;2.25;;;24.10;53.10;;;21.65;65.41;96733.19;5012800;28;20413;-67
2022/06/11 07:12:07;;;;;;;4.07;2.35;;;24.40;52.20;;;21.85;64.63;96732.69;5007795;28;20061;-68
2022/06/11 07:14:33;;;;;;;2.95;2.05;;;24.50;51.90;;;22.05;64.51;96734.91;5025777;28;20065;-68
2022/06/11 07:16:59;;;;;;;3.70;2.30;;;24.80;52.10;;;22.20;63.28;96725.22;5014472;28;20037;-68
2022/06/11 07:19:32;;;;;;;4.78;2.15;;;24.70;50.30;;;22.38;61.12;96732.13;5027266;28;20041;-67
2022/06/11 07:22:05;;;;;;;3.83;2.15;;;25.00;50.40;;;22.62;61.37;96728.16;5008687;28;20047;-66
2022/06/11 07:24:32;;;;;;;4.90;2.30;;;25.50;50.10;;;22.78;61.63;96736.38;5011033;28;20042;-67
2022/06/11 07:27:02;;;;;;;2.42;1.75;;;25.50;49.50;;;22.95;59.96;96723.75;5004301;28;20037;-67
2022/06/11 07:29:37;;;;;;;4.50;2.20;;;25.70;49.10;;;23.16;59.46;96725.56;4986422;28;20061;-66
2022/06/11 07:32:08;;;;;;;2.97;1.98;;;25.90;48.70;;;23.43;58.17;96728.25;5018317;28;20052;-69
2022/06/11 07:34:35;;;;;;;2.40;1.90;;;26.30;47.80;;;23.71;59.39;96729.84;5003894;28;20033;-69
2022/06/11 07:37:01;;;;;;;2.20;1.77;;;26.50;47.10;;;23.96;58.97;96736.47;5008942;28;20098;-69
2022/06/11 07:39:27;;;;;;;2.72;1.60;;;26.70;47.30;;;24.22;57.71;96724.84;4991914;28;20042;-66
2022/06/11 07:41:53;;;;;;;2.72;1.63;;;27.00;46.20;;;24.46;57.24;96725.25;4997319;28;20068;-66
2022/06/11 07:44:18;;;;;;;3.90;2.08;;;27.40;44.90;;;24.74;56.35;96724.84;5007649;28;20064;-68
2022/06/11 07:46:44;;;;;;;4.03;1.90;;;27.60;44.60;;;24.97;55.26;96726.25;5007390;28;20116;-67
2022/06/11 07:49:10;;;;;;;7.82;5.95;;;27.70;43.80;;;25.19;54.44;96719.88;4990264;28;20073;-67
2022/06/11 07:51:36;;;;;;;3.42;2.40;;;28.00;43.20;;;25.43;53.31;96723.66;5002053;28;20037;-66
2022/06/11 07:54:01;;;;;;;5.00;3.42;;;28.20;42.20;;;25.67;52.61;96717.75;5025933;28;20358;-66
2022/06/11 07:56:27;;;;;;;3.10;1.88;;;28.50;41.20;;;25.94;50.97;96718.28;5028788;28;20519;-66
2022/06/11 07:58:53;;;;;;;3.08;1.73;;;28.60;40.10;;;26.08;50.95;96716.66;4989751;28;20417;-66
2022/06/11 08:01:19;;;;;;;2.40;1.40;;;28.70;41.30;;;26.25;50.31;96717.19;5002163;28;20854;-65
2022/06/11 08:03:45;;;;;;;2.83;2.03;;;28.90;40.50;;;26.46;50.20;96709.03;5001631;28;20124;-64
2022/06/11 08:06:10;;;;;;;3.03;1.60;;;29.00;40.70;;;26.58;47.75;96714.94;5000933;28;20029;-68
2022/06/11 08:08:36;;;;;;;3.25;1.92;;;29.00;39.30;;;26.67;47.91;96710.56;5034089;28;20111;-67
2022/06/11 08:11:03;;;;;;;3.20;1.95;;;29.20;40.60;;;26.74;48.45;96718.38;5013343;28;20092;-66
2022/06/11 08:13:29;;;;;;;4.13;1.98;;;29.30;39.80;;;26.78;48.38;96717.56;5011327;28;20045;-66
2022/06/11 08:15:55;;;;;;;5.55;3.58;;;29.60;39.70;;;26.85;47.58;96715.34;5016548;28;20052;-67
2022/06/11 08:18:22;;;;;;;2.75;2.00;;;29.70;38.90;;;26.98;47.08;96716.66;5006699;28;20096;-67
2022/06/11 08:20:49;;;;;;;3.55;1.35;;;29.90;37.80;;;27.22;46.80;96710.59;4981300;28;20555;-67
2022/06/11 08:23:15;;;;;;;3.08;1.63;;;30.40;37.70;;;27.52;46.11;96717.66;5015077;28;20497;-67
2022/06/11 08:25:41;;;;;;;2.95;1.45;;;30.60;35.50;;;27.67;45.58;96713.00;5024708;28;20036;-67
2022/06/11 08:28:07;;;;;;;2.78;1.50;;;30.60;36.00;;;27.83;43.96;96712.84;5006827;28;20065;-66
2022/06/11 08:30:33;;;;;;;4.82;1.45;;;30.60;35.10;;;28.12;43.61;96713.66;4992264;28;20125;-67
2022/06/11 08:32:59;;;;;;;3.10;1.30;;;31.10;35.90;;;28.30;43.53;96714.88;5017823;28;20048;-67
2022/06/11 08:35:27;;;;;;;3.00;1.20;;;31.10;35.90;;;28.46;43.11;96719.00;5016107;28;20033;-67
2022/06/11 08:37:53;;;;;;;2.85;1.75;;;31.40;36.00;;;28.61;42.84;96716.13;5024804;28;20050;-67
2022/06/11 08:40:31;;;;;;;3.75;2.55;;;31.30;34.00;;;28.72;40.87;96711.38;5018547;28;20112;-67
2022/06/11 08:43:03;;;;;;;2.90;1.30;;;31.30;35.20;;;28.85;40.54;96716.13;5024474;28;20058;-69
2022/06/11 08:45:43;;;;;;;3.08;1.75;;;31.40;34.60;;;29.00;38.94;96712.41;5022683;28;20041;-68
2022/06/11 08:48:41;;;;;;;1.95;1.27;;;31.70;33.70;;;29.18;39.47;96713.50;4999872;28;20033;-69
2022/06/11 08:51:25;;;;;;;5.43;1.90;;;31.90;34.50;;;29.35;37.25;96708.38;5008641;28;20091;-69
2022/06/11 08:53:52;;;;;;;2.33;1.73;;;31.80;32.20;;;29.49;40.10;96711.19;4994406;28;20125;-70
2022/06/11 08:56:36;;;;;;;2.67;1.30;;;31.80;33.20;;;29.56;37.41;96708.91;5008866;28;20531;-70
2022/06/11 08:59:14;;;;;;;2.65;1.40;;;31.70;33.20;;;29.63;36.89;96705.81;5013272;28;20066;-70
2022/06/11 09:02:10;;;;;;;2.10;1.10;;;31.80;32.30;;;29.66;37.41;96703.31;5006409;28;20042;-69
2022/06/11 09:04:51;;;;;;;11.30;8.55;;;31.70;33.80;;;29.70;38.58;96707.06;5030427;28;20393;-71
2022/06/11 09:07:25;;;;;;;5.00;1.70;;;32.00;33.40;;;29.76;37.90;96703.16;5030219;28;20049;-70
2022/06/11 09:10:38;;;;;;;4.03;1.92;;;32.10;33.60;;;29.86;34.99;96697.53;4984755;28;20133;-69
2022/06/11 09:13:30;;;;;;;2.50;1.20;;;32.50;30.00;;;30.03;35.98;96698.88;5002186;28;20061;-70
2022/06/11 09:16:17;;;;;;;3.35;1.30;;;32.50;31.20;;;30.12;37.30;96708.00;5011675;28;20038;-71
2022/06/11 09:19:37;;;;;;;1.85;1.30;;;32.70;32.90;;;30.26;34.63;96695.22;5012004;28;20050;-70
2022/06/11 09:22:34;;;;;;;3.60;1.20;;;32.90;30.30;;;30.45;34.66;96692.41;5021173;28;20088;-70
2022/06/11 09:25:19;;;;;;;1.52;0.88;;;33.20;30.50;;;30.61;34.94;96695.66;5031092;28;20488;-69
2022/06/11 09:28:10;;;;;;;4.45;1.30;;;33.30;29.60;;;30.81;34.01;96689.81;5038134;28;20045;-69
2022/06/11 09:30:41;;;;;;;2.30;1.13;;;33.70;29.20;;;30.93;34.57;96683.84;5016504;28;20114;-70
2022/06/11 09:33:22;;;;;;;12.00;7.75;;;33.80;30.70;;;30.99;34.10;96686.13;4985823;28;20531;-71
2022/06/11 09:35:56;;;;;;;7.97;6.13;;;33.80;29.00;;;31.16;34.33;96684.69;5027630;28;20049;-71
2022/06/11 09:38:46;;;;;;;4.78;1.70;;;34.10;28.80;;;31.32;34.13;96688.72;5017828;28;20082;-69
2022/06/11 09:41:30;;;;;;;;;;;34.30;30.10;;;31.54;34.88;96683.28;5027933;28;20476;-70
2022/06/11 09:44:41;;;;;;;6.72;5.57;;;34.60;31.00;;;31.83;32.88;96682.84;5007256;28;19971;-70
2022/06/11 09:47:30;;;;;;;2.33;1.40;;;35.00;27.70;;;32.02;32.57;96682.63;5009683;28;20037;-71
2022/06/11 09:50:27;;;;;;;5.03;2.55;;;35.30;27.80;;;32.13;32.65;96681.25;4994483;28;20400;-71
2022/06/11 09:53:05;;;;;;;2.05;1.38;;;35.30;27.20;;;32.15;32.86;96689.13;5027892;28;20038;-71
2022/06/11 09:55:55;;;;;;;2.30;1.10;;;35.10;27.90;;;32.16;32.00;96691.53;5022743;28;20515;-70
2022/06/11 09:58:55;;;;;;;3.28;1.38;;;35.20;27.50;;;32.12;31.80;96692.44;4984056;28;20472;-70
2022/06/11 10:01:31;;;;;;;3.40;1.13;;;35.30;27.80;;;32.26;32.85;96683.09;5022318;28;20049;-69
2022/06/11 10:04:10;;;;;;;1.80;1.00;;;35.70;27.80;;;32.42;31.97;96686.22;4999909;28;20053;-71
2022/06/11 10:06:38;;;;;;;2.22;1.15;;;35.80;26.50;;;32.67;33.03;96690.13;4995433;28;20038;-71
2022/06/11 10:09:14;;;;;;;9.20;6.22;;;36.40;26.30;;;32.95;31.36;96684.44;5032390;28;20117;-71
2022/06/11 10:12:20;;;;;;;3.78;1.60;;;36.60;25.40;;;33.25;30.75;96682.69;5021568;28;20041;-71
2022/06/11 10:14:55;;;;;;;2.40;1.20;;;36.70;25.10;;;33.57;30.81;96682.25;5000054;28;20030;-71
2022/06/11 10:17:43;;;;;;;17.33;7.70;;;37.20;25.00;;;33.92;31.18;96684.94;5028774;28;20046;-71
2022/06/11 10:20:29;;;;;;;3.85;1.85;;;37.60;26.20;;;34.27;30.60;96677.44;5010112;28;20030;-71
2022/06/11 10:23:33;;;;;;;2.30;1.27;;;38.30;25.30;;;34.53;31.01;96678.16;5008000;28;20033;-71
2022/06/11 10:26:37;;;;;;;3.33;1.30;;;38.00;26.00;;;34.80;30.18;96684.25;5010618;28;20021;-70
2022/06/11 10:29:18;;;;;;;2.72;1.17;;;38.40;25.30;;;34.61;28.76;96680.03;5004533;28;20509;-71
2022/06/11 10:32:14;;;;;;;2.92;1.08;;;36.90;25.00;;;33.81;28.44;96673.53;5027991;28;20069;-71
2022/06/11 10:34:45;;;;;;;2.15;1.00;;;35.00;25.80;;;33.03;29.18;96687.16;5019342;28;20026;-71
2022/06/11 10:37:35;;;;;;;2.22;1.13;;;33.80;26.60;;;32.25;30.67;96681.47;4976004;28;20128;-70
2022/06/11 10:40:27;;;;;;;1.92;1.08;;;33.10;29.00;;;31.82;30.08;96677.72;5012265;28;20091;-71
2022/06/11 10:43:03;;;;;;;15.15;10.23;;;33.40;28.10;;;32.06;31.73;96688.25;5034895;28;20072;-71
2022/06/11 10:45:28;;;;;;;9.48;7.72;;;35.00;28.20;;;32.59;31.79;96678.09;4991731;28;20034;-70
2022/06/11 10:47:58;;;;;;;3.67;1.40;;;36.20;26.50;;;32.81;31.15;96673.66;5019958;28;20026;-69